CYEG/YEG METAR and TAF weather

Enter ICAO airport designator
Station Type Date Time Source
CYEG METAR 2020/07/03 14:00 UTC NOAA

CYEG 031400Z 17007KT 20SM FEW070 BKN100 BKN250 15/12 A2992 RMK ACC1AC4CI1 CI TR ACC NE-SE SLP137 DENSITY ALT 2900FT


Station Type Date Time Source
CYEG Decoded METAR 2020/07/03 14:00 UTC NOAA

Edmonton International, Alta., Canada (CYEG) 53-18N 113-35W 723M
Jul 03, 2020 - 10:00 AM EDT / 2020.07.03 1400 UTC
Wind: from the S (170 degrees) at 8 MPH (7 KT):0
Visibility: 20 mile(s):0
Sky conditions: mostly cloudy
Temperature: 59 F (15 C)
Dew Point: 53 F (12 C)
Relative Humidity: 82%
Pressure (altimeter): 29.92 in. Hg (1013 hPa)
ob: CYEG 031400Z 17007KT 20SM FEW070 BKN100 BKN250 15/12 A2992 RMK ACC1AC4CI1 CI TR ACC NE-SE SLP137 DENSITY ALT 2900FT
cycle: 14

Station Type Date Time Source
CYEG TAF 2020/07/03 12:42 UTC NOAA

TAF TAF CYEG 031140Z 0312/0412 17005KT P6SM FEW110 SCT250
BECMG 0319/0321 18012G22KT
FM032100 18012G22KT P6SM FEW050
TEMPO 0321/0323 P6SM VCTS SCT050CB BKN160
FM032300 24005KT P6SM BKN090
TEMPO 0323/0405 P6SM -SHRA
BECMG 0403/0405 35008KT
FM040500 33008KT P6SM SCT100
RMK NXT FCST BY 031500Z

Example: see airport list